createdAt,value
2018-06-16T00:00:48.982Z,87.80
2018-06-16T00:03:17.427Z,88.10
2018-06-16T00:05:45.867Z,88.40
2018-06-16T00:08:14.315Z,88.90
2018-06-16T00:10:42.783Z,89.40
2018-06-16T00:13:11.247Z,90.00
2018-06-16T00:15:39.733Z,90.30
2018-06-16T00:18:08.199Z,90.60
2018-06-16T00:20:36.651Z,90.70
2018-06-16T00:23:05.099Z,90.30
2018-06-16T00:25:33.514Z,90.40
2018-06-16T00:28:02.000Z,90.50
2018-06-16T00:30:30.476Z,90.50
2018-06-16T00:32:58.939Z,90.70
2018-06-16T00:35:27.371Z,90.70
2018-06-16T00:37:55.883Z,90.40
2018-06-16T00:40:24.350Z,90.20
2018-06-16T00:42:52.847Z,87.90
2018-06-16T00:45:21.320Z,87.50
2018-06-16T00:47:49.762Z,87.40
2018-06-16T00:50:18.257Z,87.40
2018-06-16T00:52:46.740Z,87.40
2018-06-16T00:55:15.191Z,87.40
2018-06-16T00:57:46.363Z,87.40
2018-06-16T01:00:15.996Z,87.70
2018-06-16T01:02:44.453Z,88.20
2018-06-16T01:07:41.224Z,87.40
2018-06-16T01:10:10.656Z,87.40
2018-06-16T01:12:39.467Z,87.90
2018-06-16T01:15:07.969Z,88.80
2018-06-16T01:17:36.459Z,88.90
2018-06-16T01:20:05.486Z,89.20
2018-06-16T01:22:33.951Z,90.40
2018-06-16T01:25:02.420Z,91.50
2018-06-16T01:27:30.904Z,91.40
2018-06-16T01:29:59.337Z,91.70
2018-06-16T01:32:27.817Z,92.00
2018-06-16T01:34:56.228Z,91.50
2018-06-16T01:37:24.665Z,91.60
2018-06-16T01:39:53.119Z,90.90
2018-06-16T01:42:21.547Z,90.00
2018-06-16T01:44:50.001Z,90.00
2018-06-16T01:47:18.444Z,90.10
2018-06-16T01:49:46.931Z,90.00
2018-06-16T01:52:15.387Z,90.00
2018-06-16T01:54:43.846Z,90.10
2018-06-16T01:57:12.280Z,90.10
2018-06-16T01:59:40.756Z,89.60
2018-06-16T02:02:09.195Z,89.70
2018-06-16T02:04:37.648Z,89.50
2018-06-16T02:07:06.042Z,89.50
2018-06-16T02:09:34.498Z,89.90
2018-06-16T02:12:02.949Z,89.50
2018-06-16T02:14:31.448Z,89.50
2018-06-16T02:16:59.893Z,89.50
2018-06-16T02:19:28.341Z,89.70
2018-06-16T02:21:56.750Z,89.80
2018-06-16T02:24:25.168Z,90.00
2018-06-16T02:26:53.644Z,90.00
2018-06-16T02:29:22.094Z,90.10
2018-06-16T02:31:50.579Z,90.10
2018-06-16T02:34:19.008Z,90.20
2018-06-16T02:36:47.437Z,90.40
2018-06-16T02:39:15.872Z,90.50
2018-06-16T02:41:44.301Z,90.60
2018-06-16T02:44:12.744Z,90.70
2018-06-16T02:46:41.133Z,91.20
2018-06-16T02:49:09.540Z,91.40
2018-06-16T02:51:38.048Z,91.60
2018-06-16T02:54:06.500Z,91.90
2018-06-16T02:56:35.015Z,91.90
2018-06-16T02:59:03.463Z,91.90
2018-06-16T03:01:31.874Z,91.90
2018-06-16T03:06:28.430Z,92.30
2018-06-16T03:08:56.858Z,92.40
2018-06-16T03:11:25.304Z,92.50
2018-06-16T03:13:53.715Z,92.70
2018-06-16T03:16:22.191Z,92.80
2018-06-16T03:18:50.615Z,92.60
2018-06-16T03:21:19.063Z,93.00
2018-06-16T03:23:47.477Z,93.30
2018-06-16T03:26:15.907Z,93.50
2018-06-16T03:28:44.391Z,93.80
2018-06-16T03:31:12.827Z,93.80
2018-06-16T03:33:41.310Z,94.20
2018-06-16T03:36:09.762Z,94.30
2018-06-16T03:38:38.253Z,94.30
2018-06-16T03:41:06.711Z,94.30
2018-06-16T03:43:35.125Z,94.40
2018-06-16T03:46:03.580Z,94.00
2018-06-16T03:48:32.023Z,93.30
2018-06-16T03:51:00.468Z,92.90
2018-06-16T03:53:28.914Z,92.60
2018-06-16T03:55:57.359Z,92.00
2018-06-16T03:58:25.815Z,91.50
2018-06-16T04:00:54.208Z,91.20
2018-06-16T04:03:22.652Z,91.00
2018-06-16T04:05:51.086Z,90.40
2018-06-16T04:08:19.550Z,90.10
2018-06-16T04:10:48.007Z,90.00
2018-06-16T04:13:16.434Z,89.50
2018-06-16T04:15:44.934Z,88.80
2018-06-16T04:18:13.506Z,88.10
2018-06-16T04:20:42.020Z,87.50
2018-06-16T04:23:10.509Z,85.90
2018-06-16T04:25:43.652Z,85.80
2018-06-16T04:28:12.336Z,84.90
2018-06-16T04:33:09.219Z,83.40
2018-06-16T04:35:37.687Z,81.40
2018-06-16T04:38:06.514Z,79.90
2018-06-16T04:40:34.971Z,79.40
2018-06-16T04:43:03.455Z,78.10
2018-06-16T04:45:31.968Z,78.30
2018-06-16T04:50:28.511Z,79.70
2018-06-16T04:52:56.974Z,79.00
2018-06-16T04:55:25.422Z,79.40
2018-06-16T04:57:53.891Z,80.20
2018-06-16T05:00:22.471Z,79.20
2018-06-16T05:02:50.952Z,78.00
2018-06-16T05:05:19.381Z,78.50
2018-06-16T05:07:47.832Z,78.20
2018-06-16T05:10:16.264Z,77.30
2018-06-16T05:12:44.715Z,76.80
2018-06-16T05:15:13.138Z,77.00
2018-06-16T05:17:41.561Z,77.10
2018-06-16T05:20:10.073Z,76.80
2018-06-16T05:22:38.564Z,76.30
2018-06-16T05:25:07.058Z,76.30
2018-06-16T05:27:35.496Z,76.90
2018-06-16T05:30:04.032Z,75.10
2018-06-16T05:32:32.453Z,74.80
2018-06-16T05:35:00.923Z,75.50
2018-06-16T05:37:29.348Z,75.60
2018-06-16T05:39:57.810Z,74.80
2018-06-16T05:42:26.239Z,74.30
2018-06-16T05:44:54.872Z,73.10
2018-06-16T05:47:23.294Z,73.30
2018-06-16T05:49:54.411Z,74.10
2018-06-16T05:52:22.943Z,73.00
2018-06-16T05:54:51.361Z,74.40
2018-06-16T05:57:19.827Z,74.80
2018-06-16T05:59:48.275Z,74.60
2018-06-16T06:02:19.647Z,74.60
2018-06-16T06:04:48.153Z,74.50
2018-06-16T06:07:16.635Z,74.80
2018-06-16T06:09:45.482Z,72.80
2018-06-16T06:12:13.913Z,72.30
2018-06-16T06:14:42.923Z,72.70
2018-06-16T06:17:15.807Z,72.30
2018-06-16T06:19:44.399Z,73.20
2018-06-16T06:22:12.868Z,72.50
2018-06-16T06:24:41.329Z,72.00
2018-06-16T06:27:09.763Z,70.90
2018-06-16T06:29:38.831Z,71.10
2018-06-16T06:32:07.290Z,70.10
2018-06-16T06:34:36.479Z,69.60
2018-06-16T06:37:06.801Z,69.10
2018-06-16T06:39:35.255Z,68.40
2018-06-16T06:42:03.754Z,69.40
2018-06-16T06:44:32.267Z,67.90
2018-06-16T06:47:00.682Z,68.40
2018-06-16T06:49:29.110Z,69.40
2018-06-16T06:51:57.575Z,69.50
2018-06-16T06:54:26.660Z,69.60
2018-06-16T06:56:55.163Z,70.60
2018-06-16T06:59:23.623Z,70.30
2018-06-16T07:01:52.071Z,69.40
2018-06-16T07:04:20.575Z,68.20
2018-06-16T07:06:49.092Z,69.80
2018-06-16T07:09:17.538Z,69.30
2018-06-16T07:11:46.010Z,68.10
2018-06-16T07:14:14.761Z,69.20
2018-06-16T07:16:43.297Z,69.40
2018-06-16T07:19:12.211Z,68.40
2018-06-16T07:21:40.751Z,67.30
2018-06-16T07:24:09.179Z,67.70
2018-06-16T07:26:37.659Z,67.40
2018-06-16T07:29:06.079Z,66.00
2018-06-16T07:31:34.518Z,66.00
2018-06-16T07:34:02.967Z,65.80
2018-06-16T07:36:31.935Z,64.20
2018-06-16T07:39:00.421Z,64.00
2018-06-16T07:41:28.899Z,64.40
2018-06-16T07:43:57.310Z,63.40
2018-06-16T07:46:25.780Z,65.20
2018-06-16T07:48:54.264Z,63.80
2018-06-16T07:51:22.714Z,62.90
2018-06-16T07:53:51.158Z,62.40
2018-06-16T07:56:19.610Z,60.80
2018-06-16T07:58:48.053Z,63.80
2018-06-16T08:01:16.572Z,62.00
2018-06-16T08:03:44.992Z,62.10
2018-06-16T08:06:13.468Z,60.80
2018-06-16T08:08:41.943Z,61.00
2018-06-16T08:11:10.464Z,60.30
2018-06-16T08:13:38.896Z,61.10
2018-06-16T08:16:11.198Z,59.10
2018-06-16T08:18:39.711Z,58.30
2018-06-16T08:21:08.152Z,58.80
2018-06-16T08:23:36.636Z,57.60
2018-06-16T08:26:05.087Z,58.20
2018-06-16T08:28:33.786Z,58.00
2018-06-16T08:31:02.243Z,57.10
2018-06-16T08:33:30.728Z,57.90
2018-06-16T08:35:59.232Z,57.30
2018-06-16T08:38:27.712Z,56.30
2018-06-16T08:40:56.293Z,54.70
2018-06-16T08:43:24.887Z,53.90
2018-06-16T08:45:53.381Z,53.90
2018-06-16T08:48:21.912Z,54.20
2018-06-16T08:50:50.360Z,53.30
2018-06-16T08:53:18.825Z,52.10
2018-06-16T08:55:47.272Z,52.40
2018-06-16T08:58:15.731Z,53.30
2018-06-16T09:00:44.144Z,50.90
2018-06-16T09:03:12.595Z,48.30
2018-06-16T09:05:41.018Z,48.10
2018-06-16T09:08:10.432Z,49.90
2018-06-16T09:10:38.971Z,49.50
2018-06-16T09:13:07.460Z,48.30
2018-06-16T09:15:36.204Z,48.20
2018-06-16T09:18:04.923Z,47.30
2018-06-16T09:20:33.529Z,48.30
2018-06-16T09:23:01.968Z,48.90
2018-06-16T09:25:30.609Z,47.80
2018-06-16T09:27:59.114Z,48.50
2018-06-16T09:30:27.560Z,47.60
2018-06-16T09:32:56.102Z,46.90
2018-06-16T09:35:24.579Z,48.10
2018-06-16T09:40:21.223Z,49.10
2018-06-16T09:42:49.640Z,46.10
2018-06-16T09:47:46.272Z,46.50
2018-06-16T09:50:14.724Z,46.60
2018-06-16T09:52:48.019Z,46.70
2018-06-16T09:55:16.481Z,46.70
2018-06-16T09:57:44.937Z,46.70
2018-06-16T10:00:18.736Z,46.70
2018-06-16T10:02:47.161Z,47.20
2018-06-16T10:05:15.607Z,46.60
2018-06-16T10:07:44.049Z,45.00
2018-06-16T10:10:12.624Z,44.70
2018-06-16T10:12:41.056Z,46.50
2018-06-16T10:15:09.604Z,47.10
2018-06-16T10:17:38.172Z,46.90
2018-06-16T10:20:06.683Z,46.90
2018-06-16T10:22:35.108Z,45.10
2018-06-16T10:25:03.576Z,46.70
2018-06-16T10:27:32.091Z,47.10
2018-06-16T10:30:00.620Z,46.60
2018-06-16T10:32:29.135Z,48.20
2018-06-16T10:34:57.647Z,48.80
2018-06-16T10:37:26.090Z,47.40
2018-06-16T10:39:54.564Z,47.90
2018-06-16T10:42:23.246Z,49.50
2018-06-16T10:44:51.955Z,48.40
2018-06-16T10:47:20.410Z,48.20
2018-06-16T10:49:49.947Z,47.50
2018-06-16T10:52:18.451Z,46.90
2018-06-16T10:54:46.967Z,47.20
2018-06-16T10:57:15.562Z,49.00
2018-06-16T10:59:44.007Z,47.80
2018-06-16T11:02:12.483Z,46.80
2018-06-16T11:04:40.927Z,46.70
2018-06-16T11:07:09.384Z,46.90
2018-06-16T11:09:37.807Z,46.90
2018-06-16T11:12:06.291Z,46.90
2018-06-16T11:14:34.771Z,46.70
2018-06-16T11:17:03.187Z,47.40
2018-06-16T11:19:31.605Z,47.00
2018-06-16T11:22:00.090Z,47.10
2018-06-16T11:24:28.544Z,45.50
2018-06-16T11:26:57.002Z,46.30
2018-06-16T11:29:25.476Z,46.00
2018-06-16T11:31:54.062Z,47.20
2018-06-16T11:34:22.597Z,46.80
2018-06-16T11:36:51.039Z,47.00
2018-06-16T11:39:19.683Z,45.90
2018-06-16T11:41:48.200Z,46.90
2018-06-16T11:44:16.614Z,46.10
2018-06-16T11:46:45.041Z,46.40
2018-06-16T11:49:13.459Z,45.80
2018-06-16T11:51:41.907Z,46.30
2018-06-16T11:54:10.373Z,44.70
2018-06-16T11:56:38.869Z,44.80
2018-06-16T11:59:07.256Z,47.00
2018-06-16T12:01:35.763Z,45.20
2018-06-16T12:04:04.281Z,45.40
2018-06-16T12:06:32.703Z,45.00
2018-06-16T12:09:01.149Z,45.60
2018-06-16T12:11:29.574Z,46.20
2018-06-16T12:13:57.998Z,44.70
2018-06-16T12:16:26.457Z,44.80
2018-06-16T12:18:55.508Z,44.80
2018-06-16T12:21:23.987Z,44.10
2018-06-16T12:23:53.024Z,44.60
2018-06-16T12:26:21.520Z,45.50
2018-06-16T12:28:50.163Z,43.40
2018-06-16T12:31:18.584Z,43.20
2018-06-16T12:33:47.073Z,43.40
2018-06-16T12:36:15.487Z,44.30
2018-06-16T12:38:43.943Z,43.80
2018-06-16T12:41:12.461Z,44.60
2018-06-16T12:43:40.895Z,46.00
2018-06-16T12:46:09.774Z,44.50
2018-06-16T12:48:38.223Z,45.00
2018-06-16T12:51:06.710Z,45.10
2018-06-16T12:53:35.196Z,45.00
2018-06-16T12:56:03.598Z,45.10
2018-06-16T12:58:32.204Z,45.10
2018-06-16T13:01:00.627Z,44.40
2018-06-16T13:03:29.094Z,44.30
2018-06-16T13:05:57.562Z,44.30
2018-06-16T13:08:26.021Z,43.30
2018-06-16T13:10:54.462Z,43.70
2018-06-16T13:13:22.937Z,43.60
2018-06-16T13:15:51.368Z,42.90
2018-06-16T13:18:20.016Z,44.30
2018-06-16T13:20:48.385Z,43.40
2018-06-16T13:23:17.062Z,44.70
2018-06-16T13:25:45.511Z,44.50
2018-06-16T13:28:14.032Z,44.00
2018-06-16T13:30:42.624Z,45.60
2018-06-16T13:33:11.067Z,43.90
2018-06-16T13:35:39.596Z,43.80
2018-06-16T13:38:08.090Z,44.20
2018-06-16T13:40:36.555Z,44.70
2018-06-16T13:43:05.011Z,45.00
2018-06-16T13:45:33.468Z,45.90
2018-06-16T13:48:01.964Z,45.70
2018-06-16T13:50:30.465Z,44.70
2018-06-16T13:52:59.279Z,45.20
2018-06-16T13:55:27.692Z,44.70
2018-06-16T13:57:56.154Z,43.40
2018-06-16T14:00:24.839Z,43.40
2018-06-16T14:02:53.363Z,44.90
2018-06-16T14:05:21.891Z,46.30
2018-06-16T14:07:50.325Z,45.40
2018-06-16T14:10:18.799Z,46.60
2018-06-16T14:12:47.220Z,45.60
2018-06-16T14:15:15.705Z,43.50
2018-06-16T14:17:44.143Z,44.10
2018-06-16T14:20:12.568Z,44.60
2018-06-16T14:22:41.026Z,44.30
2018-06-16T14:25:09.475Z,44.10
2018-06-16T14:27:37.923Z,44.00
2018-06-16T14:30:06.378Z,44.60
2018-06-16T14:32:34.818Z,44.60
2018-06-16T14:35:03.253Z,43.40
2018-06-16T14:37:31.783Z,43.60
2018-06-16T14:40:00.226Z,44.30
2018-06-16T14:42:28.841Z,44.80
2018-06-16T14:44:57.329Z,44.80
2018-06-16T14:47:25.748Z,45.20
2018-06-16T14:49:54.225Z,45.70
2018-06-16T14:52:22.655Z,45.70
2018-06-16T14:54:51.296Z,46.30
2018-06-16T14:57:19.790Z,45.40
2018-06-16T14:59:48.239Z,45.70
2018-06-16T15:02:16.646Z,45.60
2018-06-16T15:04:45.101Z,45.70
2018-06-16T15:07:13.527Z,45.00
2018-06-16T15:09:41.927Z,45.80
2018-06-16T15:12:10.363Z,45.60
2018-06-16T15:14:38.871Z,46.20
2018-06-16T15:17:07.446Z,44.90
2018-06-16T15:19:35.875Z,44.80
2018-06-16T15:22:04.331Z,45.30
2018-06-16T15:24:32.747Z,45.80
2018-06-16T15:27:01.244Z,44.40
2018-06-16T15:29:29.651Z,44.10
2018-06-16T15:31:58.080Z,44.50
2018-06-16T15:34:26.492Z,43.90
2018-06-16T15:36:54.934Z,43.40
2018-06-16T15:39:26.485Z,43.30
2018-06-16T15:41:54.917Z,43.40
2018-06-16T15:44:23.341Z,43.40
2018-06-16T15:46:51.764Z,43.80
2018-06-16T15:49:20.184Z,43.30
2018-06-16T15:51:48.620Z,42.70
2018-06-16T15:54:17.133Z,42.60
2018-06-16T15:56:45.638Z,43.50
2018-06-16T15:59:14.250Z,43.40
2018-06-16T16:01:42.714Z,43.50
2018-06-16T16:04:11.567Z,43.40
2018-06-16T16:06:39.997Z,42.90
2018-06-16T16:09:08.528Z,43.80
2018-06-16T16:11:37.408Z,43.90
2018-06-16T16:14:05.862Z,44.20
2018-06-16T16:16:34.580Z,43.40
2018-06-16T16:19:03.022Z,43.60
2018-06-16T16:21:31.475Z,43.70
2018-06-16T16:24:00.019Z,43.20
2018-06-16T16:26:28.488Z,42.70
2018-06-16T16:28:56.948Z,43.50
2018-06-16T16:31:25.378Z,43.50
2018-06-16T16:33:53.839Z,44.30
2018-06-16T16:36:22.279Z,43.30
2018-06-16T16:38:50.721Z,43.40
2018-06-16T16:41:19.176Z,43.40
2018-06-16T16:43:47.618Z,44.00
2018-06-16T16:46:16.104Z,43.50
2018-06-16T16:48:44.588Z,43.30
2018-06-16T16:51:13.004Z,43.20
2018-06-16T16:53:41.454Z,44.00
2018-06-16T16:56:09.857Z,44.10
2018-06-16T16:58:38.276Z,43.80
2018-06-16T17:01:06.731Z,44.50
2018-06-16T17:03:35.164Z,44.30
2018-06-16T17:06:03.615Z,44.30
2018-06-16T17:08:32.060Z,45.00
2018-06-16T17:11:00.555Z,45.40
2018-06-16T17:13:29.023Z,44.90
2018-06-16T17:15:57.485Z,45.90
2018-06-16T17:18:25.943Z,46.40
2018-06-16T17:20:54.391Z,45.60
2018-06-16T17:23:22.832Z,46.50
2018-06-16T17:25:51.208Z,46.00
2018-06-16T17:28:19.638Z,47.00
2018-06-16T17:30:48.098Z,47.00
2018-06-16T17:33:16.558Z,47.00
2018-06-16T17:35:45.082Z,47.00
2018-06-16T17:38:13.623Z,47.00
2018-06-16T17:40:42.103Z,46.90
2018-06-16T17:43:10.528Z,47.20
2018-06-16T17:45:39.169Z,47.10
2018-06-16T17:48:07.663Z,46.70
2018-06-16T17:50:36.102Z,47.90
2018-06-16T17:53:04.627Z,48.20
2018-06-16T17:55:33.130Z,48.60
2018-06-16T17:58:01.556Z,48.50
2018-06-16T18:00:30.024Z,48.50
2018-06-16T18:02:58.463Z,49.70
2018-06-16T18:05:26.944Z,49.70
2018-06-16T18:07:55.427Z,49.70
2018-06-16T18:10:23.925Z,49.90
2018-06-16T18:12:52.349Z,50.90
2018-06-16T18:15:20.785Z,50.70
2018-06-16T18:17:49.303Z,51.40
2018-06-16T18:20:17.732Z,51.40
2018-06-16T18:22:46.159Z,51.50
2018-06-16T18:25:14.644Z,51.40
2018-06-16T18:27:43.147Z,51.30
2018-06-16T18:30:11.635Z,51.90
2018-06-16T18:32:40.053Z,51.10
2018-06-16T18:35:08.456Z,51.80
2018-06-16T18:37:36.892Z,51.00
2018-06-16T18:40:05.316Z,51.40
2018-06-16T18:42:33.732Z,51.10
2018-06-16T18:45:02.148Z,51.50
2018-06-16T18:47:30.567Z,51.50
2018-06-16T18:49:58.969Z,51.30
2018-06-16T18:52:27.451Z,51.90
2018-06-16T18:57:24.239Z,52.20
2018-06-16T18:59:52.651Z,52.50
2018-06-16T19:02:21.099Z,52.60
2018-06-16T19:04:49.502Z,53.00
2018-06-16T19:07:17.950Z,53.90
2018-06-16T19:09:46.391Z,54.60
2018-06-16T19:12:14.872Z,53.90
2018-06-16T19:14:43.383Z,53.90
2018-06-16T19:17:11.852Z,53.90
2018-06-16T19:19:40.268Z,54.70
2018-06-16T19:22:08.731Z,55.00
2018-06-16T19:24:37.186Z,55.40
2018-06-16T19:27:05.667Z,56.00
2018-06-16T19:29:34.099Z,56.30
2018-06-16T19:32:02.541Z,57.10
2018-06-16T19:34:30.994Z,57.40
2018-06-16T19:36:59.645Z,57.80
2018-06-16T19:39:28.139Z,57.80
2018-06-16T19:41:56.601Z,58.50
2018-06-16T19:44:25.035Z,58.40
2018-06-16T19:46:53.499Z,58.70
2018-06-16T19:49:21.927Z,58.70
2018-06-16T19:51:50.452Z,58.70
2018-06-16T19:54:18.874Z,59.10
2018-06-16T19:59:15.460Z,58.80
2018-06-16T20:01:43.952Z,59.40
2018-06-16T20:04:12.906Z,59.40
2018-06-16T20:06:41.428Z,59.60
2018-06-16T20:09:09.868Z,59.30
2018-06-16T20:11:38.283Z,59.80
2018-06-16T20:14:06.932Z,60.20
2018-06-16T20:16:35.379Z,59.80
2018-06-16T20:19:03.826Z,60.30
2018-06-16T20:24:00.659Z,61.10
2018-06-16T20:26:29.106Z,61.00
2018-06-16T20:28:57.591Z,61.00
2018-06-16T20:31:26.064Z,61.00
2018-06-16T20:33:54.671Z,61.70
2018-06-16T20:36:23.092Z,61.00
2018-06-16T20:38:51.554Z,61.00
2018-06-16T20:41:19.987Z,60.90
2018-06-16T20:43:48.447Z,60.90
2018-06-16T20:46:16.905Z,61.00
2018-06-16T20:48:45.450Z,63.00
2018-06-16T20:51:13.976Z,64.40
2018-06-16T20:53:42.474Z,65.10
2018-06-16T20:56:10.902Z,65.90
2018-06-16T20:58:39.366Z,66.50
2018-06-16T21:01:07.791Z,67.10
2018-06-16T21:03:36.280Z,67.10
2018-06-16T21:06:04.751Z,66.80
2018-06-16T21:08:33.216Z,66.80
2018-06-16T21:11:01.671Z,67.50
2018-06-16T21:13:30.123Z,67.20
2018-06-16T21:15:58.575Z,67.60
2018-06-16T21:18:27.222Z,68.40
2018-06-16T21:20:55.632Z,68.30
2018-06-16T21:23:24.047Z,68.10
2018-06-16T21:25:52.531Z,67.70
2018-06-16T21:28:20.947Z,67.80
2018-06-16T21:30:49.384Z,68.30
2018-06-16T21:33:17.812Z,68.40
2018-06-16T21:35:46.295Z,68.30
2018-06-16T21:38:14.776Z,68.80
2018-06-16T21:40:43.217Z,69.30
2018-06-16T21:45:39.792Z,69.80
2018-06-16T21:48:08.194Z,70.00
2018-06-16T21:50:36.632Z,71.40
2018-06-16T21:53:05.045Z,70.90
2018-06-16T21:55:33.498Z,70.60
2018-06-16T21:58:01.911Z,71.20
2018-06-16T22:00:36.724Z,72.00
2018-06-16T22:03:06.505Z,72.30
2018-06-16T22:05:34.971Z,72.20
2018-06-16T22:08:08.863Z,72.90
2018-06-16T22:10:37.287Z,73.10
2018-06-16T22:13:05.715Z,72.90
2018-06-16T22:15:34.180Z,74.10
2018-06-16T22:18:02.617Z,74.60
2018-06-16T22:20:31.070Z,74.00
2018-06-16T22:22:59.488Z,74.30
2018-06-16T22:25:27.942Z,74.70
2018-06-16T22:27:56.378Z,74.60
2018-06-16T22:30:24.932Z,75.10
2018-06-16T22:32:53.376Z,75.70
2018-06-16T22:35:21.960Z,75.40
2018-06-16T22:37:50.403Z,74.80
2018-06-16T22:40:18.857Z,75.20
2018-06-16T22:42:47.319Z,75.70
2018-06-16T22:45:15.823Z,73.10
2018-06-16T22:47:44.306Z,75.40
2018-06-16T22:50:12.804Z,74.30
2018-06-16T22:52:41.227Z,74.30
2018-06-16T22:55:09.666Z,74.50
2018-06-16T22:57:38.151Z,74.90
2018-06-16T23:00:06.809Z,74.20
2018-06-16T23:02:35.283Z,74.20
2018-06-16T23:05:03.787Z,73.60
2018-06-16T23:07:32.264Z,72.40
2018-06-16T23:10:00.704Z,72.90
2018-06-16T23:12:29.188Z,72.60
2018-06-16T23:14:57.667Z,73.40
2018-06-16T23:17:26.152Z,73.80
2018-06-16T23:19:54.570Z,74.30
2018-06-16T23:22:23.010Z,74.10
2018-06-16T23:24:51.444Z,74.40
2018-06-16T23:27:20.390Z,75.00
2018-06-16T23:29:49.110Z,75.20
2018-06-16T23:32:18.667Z,75.20
2018-06-16T23:34:47.167Z,75.10
2018-06-16T23:37:15.736Z,75.80
2018-06-16T23:39:44.266Z,76.30
2018-06-16T23:42:12.811Z,76.60
2018-06-16T23:44:41.302Z,77.20
2018-06-16T23:47:09.751Z,77.60
2018-06-16T23:49:38.251Z,78.00
2018-06-16T23:52:06.841Z,78.60
2018-06-16T23:54:35.236Z,78.90
2018-06-16T23:57:03.764Z,79.00
2018-06-16T23:59:32.180Z,79.80
